Terminal Aerodrome Forecast
Issued by NWS Bismarck, ND

Home | Current Version | Previous Version | Text Only | Print | Product List | Glossary On
Versions: 1 2 3 4 5 6 7 8 9 10 11 12 13 14 15 16 17 18 19
000
FTUS43 KBIS 021858 AAA
TAFISN
TAF AMD
KISN 021858Z 0219/0318 02009KT P6SM -SHRA OVC015
      TEMPO 0219/0221 3SM SHRA BR BKN008 OVC015
     FM022100 03014KT P6SM BKN025 OVC040
      TEMPO 0221/0223 5SM SHRA BR BKN015 OVC025
     FM030400 02008KT P6SM OVC015=

USA.gov is the U.S. government's official web portal to all federal, state and local government web resources and services.